Terminal Aerodrome Forecast
Issued by NWS Missoula, MT

Home | Current Version | Previous Version | Text Only | Print | Product List | Glossary On
Versions: 1 2 3 4 5 6 7 8 9 10 11 12 13 14 15 16 17 18 19 20 21 22 23 24 25 26 27 28 29 30 31 32 33 34 35 36
000
FTUS45 KMSO 232320
TAFMSO
TAF
KMSO 232320Z 2400/2424 26012G22KT P6SM SCT080 OVC180
     FM240200 12005KT P6SM VCSH BKN150
     FM240600 VRB05KT P6SM VCTS SCT070CB OVC120
     FM241000 VRB05KT P6SM FEW050=

USA.gov is the U.S. government's official web portal to all federal, state and local government web resources and services.